sensor_id;sensor_type;location;lat;lon;timestamp;pressure;altitude;pressure_sealevel;temperature;humidity
19795;BME280;10057;59.402;17.866;2023-08-01T00:01:42;99809.00;;;18.31;71.56
19795;BME280;10057;59.402;17.866;2023-08-01T00:04:08;99809.16;;;18.29;72.02
19795;BME280;10057;59.402;17.866;2023-08-01T00:06:35;99803.78;;;18.29;71.69
19795;BME280;10057;59.402;17.866;2023-08-01T00:09:02;99800.38;;;18.27;71.54
19795;BME280;10057;59.402;17.866;2023-08-01T00:11:29;99809.16;;;18.29;71.61
19795;BME280;10057;59.402;17.866;2023-08-01T00:13:55;99802.22;;;18.27;71.46
19795;BME280;10057;59.402;17.866;2023-08-01T00:16:22;99804.03;;;18.26;71.52
19795;BME280;10057;59.402;17.866;2023-08-01T00:18:49;99797.81;;;18.26;71.45
19795;BME280;10057;59.402;17.866;2023-08-01T00:21:16;99801.47;;;18.24;71.36
19795;BME280;10057;59.402;17.866;2023-08-01T00:23:42;99791.56;;;18.25;71.32
19795;BME280;10057;59.402;17.866;2023-08-01T00:26:09;99792.56;;;18.24;71.32
19795;BME280;10057;59.402;17.866;2023-08-01T00:28:36;99797.94;;;18.24;71.20
19795;BME280;10057;59.402;17.866;2023-08-01T00:31:06;99785.63;;;18.21;71.22
19795;BME280;10057;59.402;17.866;2023-08-01T00:33:35;99787.34;;;18.22;71.07
19795;BME280;10057;59.402;17.866;2023-08-01T00:36:02;99786.75;;;18.19;71.16
19795;BME280;10057;59.402;17.866;2023-08-01T00:38:29;99790.53;;;18.16;71.12
19795;BME280;10057;59.402;17.866;2023-08-01T00:40:56;99783.59;;;18.14;70.98
19795;BME280;10057;59.402;17.866;2023-08-01T00:43:23;99778.34;;;18.12;70.99
19795;BME280;10057;59.402;17.866;2023-08-01T00:45:49;99771.41;;;18.10;70.99
19795;BME280;10057;59.402;17.866;2023-08-01T00:48:16;99773.34;;;18.08;70.86
19795;BME280;10057;59.402;17.866;2023-08-01T00:50:45;99774.19;;;18.08;70.79
19795;BME280;10057;59.402;17.866;2023-08-01T00:53:13;99776.19;;;18.06;70.86
19795;BME280;10057;59.402;17.866;2023-08-01T00:55:40;99782.66;;;18.04;71.00
19795;BME280;10057;59.402;17.866;2023-08-01T00:58:07;99782.66;;;18.04;70.83
19795;BME280;10057;59.402;17.866;2023-08-01T01:00:34;99777.53;;;18.00;70.86
19795;BME280;10057;59.402;17.866;2023-08-01T01:03:01;99777.78;;;17.97;70.79
19795;BME280;10057;59.402;17.866;2023-08-01T01:05:35;99773.41;;;17.96;70.48
19795;BME280;10057;59.402;17.866;2023-08-01T01:08:03;99773.56;;;17.95;70.56
19795;BME280;10057;59.402;17.866;2023-08-01T01:10:31;99767.56;;;17.91;70.59
19795;BME280;10057;59.402;17.866;2023-08-01T01:12:58;99759.66;;;17.90;70.70
19795;BME280;10057;59.402;17.866;2023-08-01T01:15:25;99757.38;;;17.85;70.40
19795;BME280;10057;59.402;17.866;2023-08-01T01:17:52;99765.28;;;17.87;70.40
19795;BME280;10057;59.402;17.866;2023-08-01T01:20:24;99752.84;;;17.86;70.34
19795;BME280;10057;59.402;17.866;2023-08-01T01:22:52;99749.31;;;17.85;70.34
19795;BME280;10057;59.402;17.866;2023-08-01T01:25:21;99758.22;;;17.86;70.33
19795;BME280;10057;59.402;17.866;2023-08-01T01:27:49;99740.06;;;17.78;70.13
19795;BME280;10057;59.402;17.866;2023-08-01T01:30:18;99749.81;;;17.79;70.25
19795;BME280;10057;59.402;17.866;2023-08-01T01:32:46;99745.44;;;17.78;70.12
19795;BME280;10057;59.402;17.866;2023-08-01T01:35:13;99751.75;;;17.77;70.05
19795;BME280;10057;59.402;17.866;2023-08-01T01:37:40;99749.94;;;17.77;70.15
19795;BME280;10057;59.402;17.866;2023-08-01T01:40:07;99740.78;;;17.69;69.82
19795;BME280;10057;59.402;17.866;2023-08-01T01:42:34;99748.59;;;17.72;70.07
19795;BME280;10057;59.402;17.866;2023-08-01T01:45:01;99742.50;;;17.70;70.25
19795;BME280;10057;59.402;17.866;2023-08-01T01:47:27;99747.16;;;17.68;69.97
19795;BME280;10057;59.402;17.866;2023-08-01T01:49:54;99736.41;;;17.68;70.00
19795;BME280;10057;59.402;17.866;2023-08-01T01:52:21;99739.09;;;17.68;69.88
19795;BME280;10057;59.402;17.866;2023-08-01T01:54:48;99737.13;;;17.70;69.96
19795;BME280;10057;59.402;17.866;2023-08-01T01:57:14;99728.38;;;17.68;69.94
19795;BME280;10057;59.402;17.866;2023-08-01T01:59:41;99730.91;;;17.69;70.04
19795;BME280;10057;59.402;17.866;2023-08-01T02:02:10;99730.91;;;17.69;70.07
19795;BME280;10057;59.402;17.866;2023-08-01T02:04:39;99726.41;;;17.70;69.97
19795;BME280;10057;59.402;17.866;2023-08-01T02:07:06;99722.75;;;17.71;70.18
19795;BME280;10057;59.402;17.866;2023-08-01T02:09:33;99724.47;;;17.72;69.98
19795;BME280;10057;59.402;17.866;2023-08-01T02:12:00;99720.94;;;17.71;69.89
19795;BME280;10057;59.402;17.866;2023-08-01T02:14:26;99716.41;;;17.72;70.10
19795;BME280;10057;59.402;17.866;2023-08-01T02:16:53;99713.00;;;17.70;69.96
19795;BME280;10057;59.402;17.866;2023-08-01T02:19:20;99717.41;;;17.71;69.84
19795;BME280;10057;59.402;17.866;2023-08-01T02:21:47;99711.16;;;17.70;69.85
19795;BME280;10057;59.402;17.866;2023-08-01T02:24:13;99709.47;;;17.69;69.84
19795;BME280;10057;59.402;17.866;2023-08-01T02:26:40;99718.59;;;17.67;69.95
19795;BME280;10057;59.402;17.866;2023-08-01T02:29:07;99716.78;;;17.67;69.94
19795;BME280;10057;59.402;17.866;2023-08-01T02:31:34;99708.88;;;17.66;69.80
19795;BME280;10057;59.402;17.866;2023-08-01T02:34:02;99711.69;;;17.64;69.91
19795;BME280;10057;59.402;17.866;2023-08-01T02:36:28;99712.53;;;17.65;70.00
19795;BME280;10057;59.402;17.866;2023-08-01T02:38:55;99713.38;;;17.65;69.88
19795;BME280;10057;59.402;17.866;2023-08-01T02:41:22;99709.25;;;17.61;69.83
19795;BME280;10057;59.402;17.866;2023-08-01T02:43:48;99708.53;;;17.59;69.87
19795;BME280;10057;59.402;17.866;2023-08-01T02:46:15;99707.91;;;17.56;69.83
19795;BME280;10057;59.402;17.866;2023-08-01T02:48:42;99703.78;;;17.51;69.88
19795;BME280;10057;59.402;17.866;2023-08-01T02:51:09;99704.03;;;17.48;69.85
19795;BME280;10057;59.402;17.866;2023-08-01T02:53:36;99710.41;;;17.47;69.99
19795;BME280;10057;59.402;17.866;2023-08-01T02:56:03;99698.94;;;17.45;70.05
19795;BME280;10057;59.402;17.866;2023-08-01T02:58:33;99694.56;;;17.44;70.04
19795;BME280;10057;59.402;17.866;2023-08-01T03:00:59;99689.44;;;17.41;70.08
19795;BME280;10057;59.402;17.866;2023-08-01T03:03:27;99696.75;;;17.39;70.13
19795;BME280;10057;59.402;17.866;2023-08-01T03:05:55;99689.56;;;17.40;70.21
19795;BME280;10057;59.402;17.866;2023-08-01T03:08:21;99683.50;;;17.38;70.19
19795;BME280;10057;59.402;17.866;2023-08-01T03:10:48;99680.06;;;17.36;70.37
19795;BME280;10057;59.402;17.866;2023-08-01T03:13:15;99684.59;;;17.35;70.29
19795;BME280;10057;59.402;17.866;2023-08-01T03:15:42;99677.53;;;17.34;70.18
19795;BME280;10057;59.402;17.866;2023-08-01T03:18:09;99677.53;;;17.34;70.30
19795;BME280;10057;59.402;17.866;2023-08-01T03:20:35;99670.44;;;17.33;70.43
19795;BME280;10057;59.402;17.866;2023-08-01T03:23:03;99672.16;;;17.34;70.25
19795;BME280;10057;59.402;17.866;2023-08-01T03:25:29;99673.13;;;17.33;70.35
19795;BME280;10057;59.402;17.866;2023-08-01T03:27:56;99667.06;;;17.31;70.39
19795;BME280;10057;59.402;17.866;2023-08-01T03:30:24;99668.50;;;17.35;70.49
19795;BME280;10057;59.402;17.866;2023-08-01T03:32:51;99672.03;;;17.36;70.38
19795;BME280;10057;59.402;17.866;2023-08-01T03:35:18;99665.72;;;17.37;70.24
19795;BME280;10057;59.402;17.866;2023-08-01T03:37:45;99666.56;;;17.37;70.54
19795;BME280;10057;59.402;17.866;2023-08-01T03:40:12;99666.56;;;17.37;70.32
19795;BME280;10057;59.402;17.866;2023-08-01T03:42:38;99674.72;;;17.36;70.47
19795;BME280;10057;59.402;17.866;2023-08-01T03:45:07;99665.81;;;17.35;70.09
19795;BME280;10057;59.402;17.866;2023-08-01T03:47:34;99675.56;;;17.36;70.33
19795;BME280;10057;59.402;17.866;2023-08-01T03:50:01;99662.41;;;17.33;70.29
19795;BME280;10057;59.402;17.866;2023-08-01T03:52:27;99654.66;;;17.30;70.32
19795;BME280;10057;59.402;17.866;2023-08-01T03:54:55;99662.28;;;17.35;70.25
19795;BME280;10057;59.402;17.866;2023-08-01T03:57:22;99668.63;;;17.34;70.35
19795;BME280;10057;59.402;17.866;2023-08-01T03:59:49;99664.22;;;17.33;70.38
19795;BME280;10057;59.402;17.866;2023-08-01T04:02:16;99668.50;;;17.35;70.41
19795;BME280;10057;59.402;17.866;2023-08-01T04:04:42;99672.88;;;17.36;70.48
19795;BME280;10057;59.402;17.866;2023-08-01T04:07:09;99667.50;;;17.36;70.44
19795;BME280;10057;59.402;17.866;2023-08-01T04:09:36;99662.03;;;17.38;70.59
19795;BME280;10057;59.402;17.866;2023-08-01T04:12:05;99660.06;;;17.40;70.46
19795;BME280;10057;59.402;17.866;2023-08-01T04:14:33;99651.31;;;17.38;70.55
19795;BME280;10057;59.402;17.866;2023-08-01T04:17:00;99651.91;;;17.41;70.62
19795;BME280;10057;59.402;17.866;2023-08-01T04:19:27;99659.72;;;17.44;70.87
19795;BME280;10057;59.402;17.866;2023-08-01T04:21:54;99662.38;;;17.44;70.65
19795;BME280;10057;59.402;17.866;2023-08-01T04:24:20;99664.09;;;17.45;70.59
19795;BME280;10057;59.402;17.866;2023-08-01T04:26:47;99660.66;;;17.43;70.76
19795;BME280;10057;59.402;17.866;2023-08-01T04:29:14;99656.78;;;17.47;70.71
19795;BME280;10057;59.402;17.866;2023-08-01T04:31:42;99662.13;;;17.47;70.82
19795;BME280;10057;59.402;17.866;2023-08-01T04:34:09;99655.78;;;17.48;70.89
19795;BME280;10057;59.402;17.866;2023-08-01T04:36:36;99658.47;;;17.48;70.79
19795;BME280;10057;59.402;17.866;2023-08-01T04:39:02;99658.47;;;17.48;70.94
19795;BME280;10057;59.402;17.866;2023-08-01T04:41:29;99660.16;;;17.49;70.95
19795;BME280;10057;59.402;17.866;2023-08-01T04:43:56;99661.75;;;17.52;70.92
19795;BME280;10057;59.402;17.866;2023-08-01T04:46:22;99658.94;;;17.53;71.07
19795;BME280;10057;59.402;17.866;2023-08-01T04:48:49;99656.25;;;17.53;71.23
19795;BME280;10057;59.402;17.866;2023-08-01T04:51:16;99656.25;;;17.53;70.98
19795;BME280;10057;59.402;17.866;2023-08-01T04:53:43;99655.16;;;17.56;71.22
19795;BME280;10057;59.402;17.866;2023-08-01T04:56:10;99649.78;;;17.56;71.31
19795;BME280;10057;59.402;17.866;2023-08-01T04:58:36;99646.41;;;17.54;71.40
19795;BME280;10057;59.402;17.866;2023-08-01T05:01:03;99652.59;;;17.55;71.33
19795;BME280;10057;59.402;17.866;2023-08-01T05:03:30;99651.75;;;17.54;71.47
19795;BME280;10057;59.402;17.866;2023-08-01T05:05:57;99648.09;;;17.55;71.77
19795;BME280;10057;59.402;17.866;2023-08-01T05:08:24;99645.25;;;17.57;71.79
19795;BME280;10057;59.402;17.866;2023-08-01T05:10:50;99653.19;;;17.58;71.81
19795;BME280;10057;59.402;17.866;2023-08-01T05:13:17;99647.00;;;17.58;72.12
19795;BME280;10057;59.402;17.866;2023-08-01T05:15:47;99648.44;;;17.62;71.67
19795;BME280;10057;59.402;17.866;2023-08-01T05:18:16;99651.81;;;17.64;71.84
19795;BME280;10057;59.402;17.866;2023-08-01T05:20:43;99640.50;;;17.60;71.95
19795;BME280;10057;59.402;17.866;2023-08-01T05:23:10;99645.50;;;17.65;71.88
19795;BME280;10057;59.402;17.866;2023-08-01T05:25:37;99641.09;;;17.64;72.08
19795;BME280;10057;59.402;17.866;2023-08-01T05:28:04;99643.50;;;17.67;71.96
19795;BME280;10057;59.402;17.866;2023-08-01T05:30:30;99647.91;;;17.68;72.22
19795;BME280;10057;59.402;17.866;2023-08-01T05:32:57;99645.94;;;17.70;72.28
19795;BME280;10057;59.402;17.866;2023-08-01T05:35:24;99647.53;;;17.72;72.17
19795;BME280;10057;59.402;17.866;2023-08-01T05:37:51;99644.69;;;17.74;72.17
19795;BME280;10057;59.402;17.866;2023-08-01T05:40:17;99637.41;;;17.76;72.31
19795;BME280;10057;59.402;17.866;2023-08-01T05:42:44;99641.53;;;17.80;72.35
19795;BME280;10057;59.402;17.866;2023-08-01T05:45:11;99628.13;;;17.80;72.36
19795;BME280;10057;59.402;17.866;2023-08-01T05:47:38;99635.06;;;17.83;72.52
19795;BME280;10057;59.402;17.866;2023-08-01T05:50:07;99635.66;;;17.86;72.70
19795;BME280;10057;59.402;17.866;2023-08-01T05:52:34;99632.97;;;17.86;72.81
19795;BME280;10057;59.402;17.866;2023-08-01T05:55:01;99634.56;;;17.89;72.93
19795;BME280;10057;59.402;17.866;2023-08-01T05:57:29;99620.56;;;17.85;72.87
19795;BME280;10057;59.402;17.866;2023-08-01T05:59:56;99619.06;;;17.92;73.14
19795;BME280;10057;59.402;17.866;2023-08-01T06:02:22;99624.16;;;17.95;73.08
19795;BME280;10057;59.402;17.866;2023-08-01T06:04:49;99620.22;;;17.99;73.21
19795;BME280;10057;59.402;17.866;2023-08-01T06:07:16;99627.28;;;18.00;73.33
19795;BME280;10057;59.402;17.866;2023-08-01T06:09:50;99619.97;;;18.03;73.36
19795;BME280;10057;59.402;17.866;2023-08-01T06:12:20;99623.09;;;18.08;73.24
19795;BME280;10057;59.402;17.866;2023-08-01T06:14:47;99624.81;;;18.09;73.58
19795;BME280;10057;59.402;17.866;2023-08-01T06:17:14;99616.47;;;18.12;73.70
19795;BME280;10057;59.402;17.866;2023-08-01T06:19:42;99616.47;;;18.12;73.71
19795;BME280;10057;59.402;17.866;2023-08-01T06:22:09;99613.66;;;18.13;73.81
19795;BME280;10057;59.402;17.866;2023-08-01T06:24:36;99625.25;;;18.14;73.86
19795;BME280;10057;59.402;17.866;2023-08-01T06:27:02;99615.50;;;18.13;74.02
19795;BME280;10057;59.402;17.866;2023-08-01T06:29:29;99623.03;;;18.19;74.05
19795;BME280;10057;59.402;17.866;2023-08-01T06:31:56;99622.88;;;18.20;74.44
19795;BME280;10057;59.402;17.866;2023-08-01T06:34:23;99622.75;;;18.22;74.13
19795;BME280;10057;59.402;17.866;2023-08-01T06:36:51;99619.78;;;18.25;74.20
19795;BME280;10057;59.402;17.866;2023-08-01T06:39:18;99620.38;;;18.29;74.23
19795;BME280;10057;59.402;17.866;2023-08-01T06:41:45;99613.06;;;18.31;74.15
19795;BME280;10057;59.402;17.866;2023-08-01T06:44:11;99615.47;;;18.34;74.40
19795;BME280;10057;59.402;17.866;2023-08-01T06:46:38;99616.91;;;18.38;74.67
19795;BME280;10057;59.402;17.866;2023-08-01T06:49:05;99621.16;;;18.40;74.63
19795;BME280;10057;59.402;17.866;2023-08-01T06:51:32;99615.53;;;18.43;74.93
19795;BME280;10057;59.402;17.866;2023-08-01T06:53:59;99607.19;;;18.46;75.06
19795;BME280;10057;59.402;17.866;2023-08-01T06:56:26;99611.31;;;18.51;75.03
19795;BME280;10057;59.402;17.866;2023-08-01T06:58:53;99608.34;;;18.54;75.09
19795;BME280;10057;59.402;17.866;2023-08-01T07:01:19;99602.00;;;18.55;75.24
19795;BME280;10057;59.402;17.866;2023-08-01T07:03:46;99612.31;;;18.59;75.25
19795;BME280;10057;59.402;17.866;2023-08-01T07:06:13;99614.72;;;18.62;75.30
19795;BME280;10057;59.402;17.866;2023-08-01T07:08:40;99623.38;;;18.66;75.36
19795;BME280;10057;59.402;17.866;2023-08-01T07:11:07;99622.41;;;18.67;75.01
19795;BME280;10057;59.402;17.866;2023-08-01T07:13:33;99608.81;;;18.68;75.00
19795;BME280;10057;59.402;17.866;2023-08-01T07:16:00;99605.91;;;18.72;75.21
19795;BME280;10057;59.402;17.866;2023-08-01T07:18:27;99608.75;;;18.80;75.25
19795;BME280;10057;59.402;17.866;2023-08-01T07:21:03;99606.63;;;18.83;75.08
19795;BME280;10057;59.402;17.866;2023-08-01T07:23:33;99600.03;;;18.87;75.45
19795;BME280;10057;59.402;17.866;2023-08-01T07:26:00;99604.41;;;18.88;75.52
19795;BME280;10057;59.402;17.866;2023-08-01T07:28:27;99605.09;;;18.90;75.33
19795;BME280;10057;59.402;17.866;2023-08-01T07:31:01;99591.53;;;18.92;75.14
19795;BME280;10057;59.402;17.866;2023-08-01T07:33:28;99600.44;;;18.92;75.21
19795;BME280;10057;59.402;17.866;2023-08-01T07:35:55;99601.44;;;18.91;75.04
19795;BME280;10057;59.402;17.866;2023-08-01T07:38:22;99594.50;;;18.89;74.81
19795;BME280;10057;59.402;17.866;2023-08-01T07:40:50;99599.03;;;18.88;74.99
19795;BME280;10057;59.402;17.866;2023-08-01T07:43:17;99593.50;;;18.90;74.80
19795;BME280;10057;59.402;17.866;2023-08-01T07:45:43;99588.97;;;18.90;74.85
19795;BME280;10057;59.402;17.866;2023-08-01T07:48:10;99601.44;;;18.91;74.71
19795;BME280;10057;59.402;17.866;2023-08-01T07:50:37;99593.22;;;18.93;74.87
19795;BME280;10057;59.402;17.866;2023-08-01T07:53:04;99597.47;;;18.96;74.74
19795;BME280;10057;59.402;17.866;2023-08-01T07:55:33;99592.38;;;18.92;74.47
19795;BME280;10057;59.402;17.866;2023-08-01T07:58:01;99593.38;;;18.91;74.55
19795;BME280;10057;59.402;17.866;2023-08-01T08:00:28;99602.84;;;18.96;74.53
19795;BME280;10057;59.402;17.866;2023-08-01T08:02:54;99596.63;;;18.95;74.45
19795;BME280;10057;59.402;17.866;2023-08-01T08:05:21;99590.16;;;18.98;74.08
19795;BME280;10057;59.402;17.866;2023-08-01T08:07:48;99591.84;;;18.99;74.03
19795;BME280;10057;59.402;17.866;2023-08-01T08:10:15;99588.31;;;18.98;74.00
19795;BME280;10057;59.402;17.866;2023-08-01T08:12:42;99599.75;;;19.00;74.25
19795;BME280;10057;59.402;17.866;2023-08-01T08:15:09;99589.84;;;19.01;74.22
19795;BME280;10057;59.402;17.866;2023-08-01T08:17:35;99585.34;;;19.01;73.87
19795;BME280;10057;59.402;17.866;2023-08-01T08:20:03;99586.47;;;18.99;74.00
19795;BME280;10057;59.402;17.866;2023-08-01T08:22:30;99597.22;;;18.99;74.00
19795;BME280;10057;59.402;17.866;2023-08-01T08:24:57;99591.84;;;18.99;73.97
19795;BME280;10057;59.402;17.866;2023-08-01T08:27:23;99593.53;;;19.00;74.14
19795;BME280;10057;59.402;17.866;2023-08-01T08:29:50;99599.63;;;19.02;74.18
19795;BME280;10057;59.402;17.866;2023-08-01T08:32:17;99603.28;;;19.01;74.16
19795;BME280;10057;59.402;17.866;2023-08-01T08:34:44;99590.41;;;18.94;74.30
19795;BME280;10057;59.402;17.866;2023-08-01T08:37:10;99588.41;;;18.97;73.88
19795;BME280;10057;59.402;17.866;2023-08-01T08:39:37;99592.94;;;18.96;74.42
19795;BME280;10057;59.402;17.866;2023-08-01T08:42:04;99595.63;;;18.96;74.67
19795;BME280;10057;59.402;17.866;2023-08-01T08:44:32;99589.28;;;18.97;74.65
19795;BME280;10057;59.402;17.866;2023-08-01T08:47:03;99588.69;;;18.93;74.48
19795;BME280;10057;59.402;17.866;2023-08-01T08:49:33;99575.53;;;18.90;74.60
19795;BME280;10057;59.402;17.866;2023-08-01T08:52:00;99576.97;;;18.85;74.82
19795;BME280;10057;59.402;17.866;2023-08-01T08:54:30;99594.06;;;18.84;75.04
19795;BME280;10057;59.402;17.866;2023-08-01T08:56:58;99594.06;;;18.84;75.31
19795;BME280;10057;59.402;17.866;2023-08-01T08:59:26;99591.22;;;18.85;75.39
19795;BME280;10057;59.402;17.866;2023-08-01T09:01:53;99588.13;;;18.90;75.82
19795;BME280;10057;59.402;17.866;2023-08-01T09:04:20;99578.09;;;18.92;75.88
19795;BME280;10057;59.402;17.866;2023-08-01T09:06:49;99574.13;;;18.96;76.09
19795;BME280;10057;59.402;17.866;2023-08-01T09:09:18;99574.03;;;18.98;76.13
19795;BME280;10057;59.402;17.866;2023-08-01T09:11:49;99580.09;;;19.00;76.29
19795;BME280;10057;59.402;17.866;2023-08-01T09:14:17;99577.13;;;19.03;76.56
19795;BME280;10057;59.402;17.866;2023-08-01T09:16:44;99581.38;;;19.05;76.57
19795;BME280;10057;59.402;17.866;2023-08-01T09:19:20;99573.16;;;19.07;76.72
19795;BME280;10057;59.402;17.866;2023-08-01T09:21:47;99570.19;;;19.10;77.03
19795;BME280;10057;59.402;17.866;2023-08-01T09:24:16;99574.31;;;19.14;77.23
19795;BME280;10057;59.402;17.866;2023-08-01T09:26:46;99586.50;;;19.18;77.57
19795;BME280;10057;59.402;17.866;2023-08-01T09:29:15;99578.28;;;19.20;77.54
19795;BME280;10057;59.402;17.866;2023-08-01T09:31:43;99578.00;;;19.23;77.73
19795;BME280;10057;59.402;17.866;2023-08-01T09:34:26;99579.13;;;19.20;77.33
19795;BME280;10057;59.402;17.866;2023-08-01T09:37:00;99574.03;;;19.17;77.51
19795;BME280;10057;59.402;17.866;2023-08-01T09:39:27;99576.59;;;19.18;77.77
19795;BME280;10057;59.402;17.866;2023-08-01T09:42:00;99574.75;;;19.19;77.63
19795;BME280;10057;59.402;17.866;2023-08-01T09:44:29;99583.09;;;19.16;77.74
19795;BME280;10057;59.402;17.866;2023-08-01T09:47:02;99578.44;;;19.18;77.55
19795;BME280;10057;59.402;17.866;2023-08-01T09:49:30;99577.44;;;19.19;77.52
19795;BME280;10057;59.402;17.866;2023-08-01T09:51:58;99574.03;;;19.17;77.61
19795;BME280;10057;59.402;17.866;2023-08-01T09:54:24;99574.47;;;19.22;77.57
19795;BME280;10057;59.402;17.866;2023-08-01T09:56:53;99568.09;;;19.23;77.36
19795;BME280;10057;59.402;17.866;2023-08-01T09:59:25;99568.81;;;19.25;77.47
19795;BME280;10057;59.402;17.866;2023-08-01T10:01:53;99566.97;;;19.26;77.55
19795;BME280;10057;59.402;17.866;2023-08-01T10:04:23;99560.75;;;19.25;77.60
19795;BME280;10057;59.402;17.866;2023-08-01T10:06:56;99557.91;;;19.27;77.62
19795;BME280;10057;59.402;17.866;2023-08-01T10:09:24;99554.78;;;19.31;78.08
19795;BME280;10057;59.402;17.866;2023-08-01T10:11:51;99551.13;;;19.32;77.87
19795;BME280;10057;59.402;17.866;2023-08-01T10:14:21;99557.06;;;19.36;78.00
19795;BME280;10057;59.402;17.866;2023-08-01T10:16:49;99553.25;;;19.38;77.89
19795;BME280;10057;59.402;17.866;2023-08-01T10:19:19;99549.56;;;19.39;77.91
19795;BME280;10057;59.402;17.866;2023-08-01T10:21:47;99551.13;;;19.42;78.12
19795;BME280;10057;59.402;17.866;2023-08-01T10:24:15;99560.72;;;19.45;78.47
19795;BME280;10057;59.402;17.866;2023-08-01T10:26:46;99550.69;;;19.47;78.25
19795;BME280;10057;59.402;17.866;2023-08-01T10:29:13;99562.16;;;19.49;77.99
19795;BME280;10057;59.402;17.866;2023-08-01T10:31:50;99549.69;;;19.48;78.06
19795;BME280;10057;59.402;17.866;2023-08-01T10:34:18;99548.84;;;19.47;78.00
19795;BME280;10057;59.402;17.866;2023-08-01T10:36:54;99549.97;;;19.45;77.75
19795;BME280;10057;59.402;17.866;2023-08-01T10:39:21;99552.66;;;19.45;77.67
19795;BME280;10057;59.402;17.866;2023-08-01T10:42:05;99546.59;;;19.42;77.39
19795;BME280;10057;59.402;17.866;2023-08-01T10:44:32;99553.66;;;19.44;77.27
19795;BME280;10057;59.402;17.866;2023-08-01T10:47:03;99546.59;;;19.42;77.20
19795;BME280;10057;59.402;17.866;2023-08-01T10:49:48;99545.59;;;19.44;76.88
19795;BME280;10057;59.402;17.866;2023-08-01T10:52:23;99542.75;;;19.45;77.26
19795;BME280;10057;59.402;17.866;2023-08-01T10:55:01;99542.47;;;19.48;77.00
19795;BME280;10057;59.402;17.866;2023-08-01T10:57:30;99546.03;;;19.49;76.95
19795;BME280;10057;59.402;17.866;2023-08-01T10:59:57;99542.63;;;19.47;76.72
19795;BME280;10057;59.402;17.866;2023-08-01T11:02:28;99549.28;;;19.52;76.58
19795;BME280;10057;59.402;17.866;2023-08-01T11:05:03;99534.97;;;19.52;76.42
19795;BME280;10057;59.402;17.866;2023-08-01T11:07:31;99544.19;;;19.59;76.58
19795;BME280;10057;59.402;17.866;2023-08-01T11:12:36;99539.22;;;19.64;76.24
19795;BME280;10057;59.402;17.866;2023-08-01T11:15:05;99534.69;;;19.64;75.80
19795;BME280;10057;59.402;17.866;2023-08-01T11:17:47;99542.31;;;19.69;75.84
19795;BME280;10057;59.402;17.866;2023-08-01T11:20:14;99541.91;;;19.74;75.76
19795;BME280;10057;59.402;17.866;2023-08-01T11:23:01;99536.81;;;19.80;75.62
19795;BME280;10057;59.402;17.866;2023-08-01T11:25:35;99535.22;;;19.87;75.47
19795;BME280;10057;59.402;17.866;2023-08-01T11:28:06;99545.81;;;19.89;75.01
19795;BME280;10057;59.402;17.866;2023-08-01T11:30:36;99550.22;;;19.90;74.84
19795;BME280;10057;59.402;17.866;2023-08-01T11:33:17;99545.69;;;19.91;74.71
19795;BME280;10057;59.402;17.866;2023-08-01T11:35:44;99543.97;;;19.89;74.65
19795;BME280;10057;59.402;17.866;2023-08-01T11:38:11;99544.97;;;19.88;74.53
19795;BME280;10057;59.402;17.866;2023-08-01T11:40:38;99550.06;;;19.92;74.36
19795;BME280;10057;59.402;17.866;2023-08-01T11:43:06;99553.47;;;19.94;74.52
19795;BME280;10057;59.402;17.866;2023-08-01T11:45:33;99543.56;;;19.94;74.24
19795;BME280;10057;59.402;17.866;2023-08-01T11:48:00;99544.56;;;19.93;74.09
19795;BME280;10057;59.402;17.866;2023-08-01T11:50:28;99554.16;;;19.96;73.82
19795;BME280;10057;59.402;17.866;2023-08-01T11:52:55;99547.09;;;19.95;73.49
19795;BME280;10057;59.402;17.866;2023-08-01T11:55:24;99547.66;;;19.98;73.61
19795;BME280;10057;59.402;17.866;2023-08-01T11:57:56;99542.28;;;19.98;73.41
19795;BME280;10057;59.402;17.866;2023-08-01T12:00:25;99545.13;;;19.97;72.99
19795;BME280;10057;59.402;17.866;2023-08-01T12:03:04;99535.50;;;19.94;72.66
19795;BME280;10057;59.402;17.866;2023-08-01T12:05:31;99542.72;;;19.94;72.84
19795;BME280;10057;59.402;17.866;2023-08-01T12:08:12;99547.09;;;19.95;72.76
19795;BME280;10057;59.402;17.866;2023-08-01T12:10:44;99555.88;;;19.97;73.05
19795;BME280;10057;59.402;17.866;2023-08-01T12:13:21;99548.50;;;19.99;72.82
19795;BME280;10057;59.402;17.866;2023-08-01T12:15:50;99550.19;;;20.00;72.84
19795;BME280;10057;59.402;17.866;2023-08-01T12:18:22;99545.13;;;19.97;72.47
19795;BME280;10057;59.402;17.866;2023-08-01T12:21:09;99550.50;;;19.97;72.51
19795;BME280;10057;59.402;17.866;2023-08-01T12:23:36;99548.50;;;19.99;72.42
19795;BME280;10057;59.402;17.866;2023-08-01T12:26:02;99547.50;;;20.00;72.10
19795;BME280;10057;59.402;17.866;2023-08-01T12:28:29;99560.94;;;20.00;72.19
19795;BME280;10057;59.402;17.866;2023-08-01T12:30:56;99555.44;;;20.01;71.91
19795;BME280;10057;59.402;17.866;2023-08-01T12:33:25;99551.91;;;20.01;71.50
19795;BME280;10057;59.402;17.866;2023-08-01T12:35:54;99555.28;;;20.03;71.35
19795;BME280;10057;59.402;17.866;2023-08-01T12:38:20;99554.16;;;20.05;71.48
19795;BME280;10057;59.402;17.866;2023-08-01T12:40:48;99554.16;;;20.05;71.06
19795;BME280;10057;59.402;17.866;2023-08-01T12:43:15;99563.78;;;20.08;70.93
19795;BME280;10057;59.402;17.866;2023-08-01T12:45:43;99563.63;;;20.09;71.02
19795;BME280;10057;59.402;17.866;2023-08-01T12:48:10;99563.63;;;20.09;70.80
19795;BME280;10057;59.402;17.866;2023-08-01T12:50:37;99559.53;;;20.05;70.75
19795;BME280;10057;59.402;17.866;2023-08-01T12:53:04;99560.09;;;20.09;70.75
19795;BME280;10057;59.402;17.866;2023-08-01T12:55:31;99558.09;;;20.11;70.58
19795;BME280;10057;59.402;17.866;2023-08-01T12:57:57;99551.00;;;20.10;70.40